BGKK

Kulusuk Airport

Kulusuk, Greenland
METAR BGKK 220350Z AUTO 29003KT 9999NDV NCD M11/M15 Q0987
Observed Flight Rules
Jan-22 @ 03:50 UTC (an hour ago)
Wind Clouds
290° at 3 knots
  • Clear skies
Temperatures Readings
Current -11°C / 12°F
Dewpoint -15°C / 5°F
Humidity 73%
Altimeter 29.14" Hg
Pressure 986.92 hPa
Elevation 34
METAR BGKK 220350Z AUTO 29003KT 9999NDV NCD M11/M15 Q0987
Observed Flight Rules
Jan-22 @ 03:50 UTC
(an hour ago)
Wind
290° at 3 knots
Clouds
  • Clear skies
Temperature Dewpoint
-11°C / 12°F -15°C / 5°F
Humidity Altimeter Pressure
73% 29.14" Hg 986.92 hPa